Time;durP1;ratioP1;P1;durP2;ratioP2;P2;SDS_P1;SDS_P2;PMS_P1;PMS_P2;Temp;Humidity;BMP_temperature;BMP_pressure;BME280_temperature;BME280_humidity;BME280_pressure;Samples;Min_cycle;Max_cycle;Signal;HPM_P1;HPM_P2
2024/01/26 00:02:19;;;;;;;112.70;39.78;;;8.20;99.90;;;;;;5058525;28;20051;-68
2024/01/26 00:04:45;;;;;;;117.75;41.78;;;8.60;99.90;;;;;;5038395;28;20046;-66
2024/01/26 00:07:11;;;;;;;121.78;40.65;;;8.60;99.90;;;;;;5038388;28;20071;-67
2024/01/26 00:09:37;;;;;;;115.97;39.30;;;8.40;99.90;;;;;;5056213;28;20205;-67
2024/01/26 00:12:03;;;;;;;132.18;43.88;;;8.40;99.90;;;;;;5058853;28;20116;-67
2024/01/26 00:14:29;;;;;;;138.30;44.08;;;8.60;99.90;;;;;;5054964;28;20123;-66
2024/01/26 00:16:55;;;;;;;122.13;39.80;;;8.30;99.90;;;;;;5055873;28;20043;-67
2024/01/26 00:19:20;;;;;;;127.68;42.65;;;8.40;99.90;;;;;;5054919;28;20084;-67
2024/01/26 00:21:52;;;;;;;122.82;41.70;;;8.50;99.90;;;;;;5039329;28;20934;-66
2024/01/26 00:24:18;;;;;;;135.00;43.20;;;8.60;99.90;;;;;;5058432;28;20047;-67
2024/01/26 00:26:45;;;;;;;106.85;36.65;;;8.80;99.90;;;;;;5072594;28;20868;-67
2024/01/26 00:29:11;;;;;;;107.43;39.83;;;8.60;99.90;;;;;;5055681;28;20049;-67
2024/01/26 00:31:37;;;;;;;114.20;42.10;;;8.90;99.90;;;;;;5055203;28;20043;-67
2024/01/26 00:34:03;;;;;;;110.35;40.55;;;8.80;99.90;;;;;;5038812;28;20054;-66
2024/01/26 00:36:29;;;;;;;107.10;39.60;;;8.60;99.90;;;;;;5055622;28;20695;-67
2024/01/26 00:38:55;;;;;;;109.88;39.58;;;9.00;99.90;;;;;;5042291;28;20314;-67
2024/01/26 00:41:24;;;;;;;109.43;41.45;;;8.90;99.90;;;;;;5038404;28;21268;-67
2024/01/26 00:43:50;;;;;;;111.63;41.55;;;8.80;99.90;;;;;;5041054;28;20036;-67
2024/01/26 00:46:16;;;;;;;108.90;39.40;;;9.00;99.90;;;;;;5055149;28;20046;-67
2024/01/26 00:48:41;;;;;;;113.85;40.67;;;9.00;99.90;;;;;;5088525;28;20074;-68
2024/01/26 00:51:07;;;;;;;116.72;42.88;;;9.10;99.90;;;;;;5057822;28;20542;-67
2024/01/26 00:53:33;;;;;;;112.68;40.95;;;8.80;99.90;;;;;;5072181;28;20066;-68
2024/01/26 00:55:59;;;;;;;115.43;41.92;;;8.70;99.90;;;;;;5070960;28;20052;-68
2024/01/26 00:58:25;;;;;;;119.07;42.05;;;8.80;99.90;;;;;;5074622;28;20347;-68
2024/01/26 01:00:51;;;;;;;111.63;38.63;;;8.80;99.90;;;;;;5042366;28;20281;-67
2024/01/26 01:03:16;;;;;;;110.82;38.40;;;8.80;99.90;;;;;;5058925;28;20662;-66
2024/01/26 01:05:42;;;;;;;120.57;42.63;;;8.80;99.90;;;;;;5058631;28;20557;-67
2024/01/26 01:08:08;;;;;;;114.43;37.08;;;9.10;99.90;;;;;;5059284;28;20436;-69
2024/01/26 01:10:34;;;;;;;120.53;44.92;;;8.90;99.90;;;;;;5058139;28;20084;-67
2024/01/26 01:13:00;;;;;;;132.73;46.47;;;8.80;99.90;;;;;;5074883;28;20044;-67
2024/01/26 01:15:26;;;;;;;127.85;45.10;;;9.10;99.90;;;;;;5075746;28;20126;-66
2024/01/26 01:17:52;;;;;;;121.55;43.97;;;9.10;99.90;;;;;;5040806;28;20685;-67
2024/01/26 01:20:18;;;;;;;132.65;46.88;;;9.00;99.90;;;;;;5041969;28;20036;-67
2024/01/26 01:22:44;;;;;;;128.35;45.45;;;9.10;99.90;;;;;;5058874;28;20548;-67
2024/01/26 01:25:14;;;;;;;123.53;44.58;;;9.20;99.90;;;;;;5057865;28;20286;-67
2024/01/26 01:27:40;;;;;;;126.72;46.47;;;9.20;99.90;;;;;;5075285;28;20089;-67
2024/01/26 01:30:07;;;;;;;120.22;45.75;;;9.30;99.90;;;;;;5041143;28;20050;-67
2024/01/26 01:32:34;;;;;;;128.43;47.65;;;9.20;99.90;;;;;;5058342;28;20046;-67
2024/01/26 01:35:00;;;;;;;121.20;46.40;;;9.40;99.90;;;;;;5075418;28;20048;-67
2024/01/26 01:37:26;;;;;;;117.45;44.30;;;9.20;99.90;;;;;;5058418;28;20172;-67
2024/01/26 01:39:52;;;;;;;109.88;42.53;;;9.20;99.90;;;;;;5058172;28;20043;-66
2024/01/26 01:42:18;;;;;;;109.45;43.53;;;9.40;99.90;;;;;;5057821;28;20128;-67
2024/01/26 01:44:45;;;;;;;118.70;45.83;;;9.20;99.90;;;;;;5075238;28;20459;-67
2024/01/26 01:47:15;;;;;;;118.40;43.60;;;9.30;99.90;;;;;;5040524;28;20516;-67
2024/01/26 01:49:42;;;;;;;121.65;44.58;;;9.30;99.90;;;;;;5075080;28;20134;-67
2024/01/26 01:52:16;;;;;;;121.72;46.17;;;9.60;99.90;;;;;;5073959;28;20039;-67
2024/01/26 01:54:42;;;;;;;;;;;9.50;99.90;;;;;;5074791;28;20114;-68
2024/01/26 01:57:10;;;;;;;112.63;43.60;;;9.60;99.90;;;;;;5108018;27;19916;-67
2024/01/26 01:59:37;;;;;;;97.80;42.60;;;9.50;99.90;;;;;;5074171;28;20374;-67
2024/01/26 02:02:04;;;;;;;111.70;45.88;;;9.50;99.90;;;;;;5075006;28;20064;-66
2024/01/26 02:04:30;;;;;;;100.32;42.03;;;9.30;99.90;;;;;;5057882;28;20812;-66
2024/01/26 02:06:58;;;;;;;93.55;41.17;;;9.40;99.90;;;;;;5074975;28;20200;-67
2024/01/26 02:09:24;;;;;;;95.13;42.33;;;9.30;99.90;;;;;;5039007;28;20103;-67
2024/01/26 02:11:50;;;;;;;90.95;40.30;;;9.80;99.90;;;;;;5057518;28;20206;-66
2024/01/26 02:14:17;;;;;;;91.45;39.88;;;9.50;99.90;;;;;;5057858;28;20050;-66
2024/01/26 02:16:56;;;;;;;87.78;39.70;;;9.50;99.90;;;;;;5080988;28;20309;-66
2024/01/26 02:19:23;;;;;;;87.55;39.40;;;9.50;99.90;;;;;;5057818;28;20032;-67
2024/01/26 02:21:49;;;;;;;84.53;40.22;;;9.80;99.90;;;;;;5040334;28;20104;-67
2024/01/26 02:24:15;;;;;;;91.72;43.30;;;9.50;99.90;;;;;;5057727;28;20048;-67
2024/01/26 02:26:41;;;;;;;87.60;41.22;;;9.80;99.90;;;;;;5057986;28;20054;-67
2024/01/26 02:29:07;;;;;;;80.05;36.40;;;9.50;99.90;;;;;;5073356;28;20137;-67
2024/01/26 02:31:33;;;;;;;83.95;40.22;;;9.70;99.90;;;;;;5073810;28;20591;-67
2024/01/26 02:33:59;;;;;;;83.10;40.97;;;9.80;99.90;;;;;;5056669;28;20055;-67
2024/01/26 02:36:29;;;;;;;79.70;41.97;;;9.50;99.90;;;;;;5056355;28;20040;-67
2024/01/26 02:38:55;;;;;;;81.32;38.88;;;9.50;99.90;;;;;;5073639;28;20152;-68
2024/01/26 02:41:23;;;;;;;76.30;38.90;;;9.60;99.90;;;;;;5040924;28;20116;-68
2024/01/26 02:43:52;;;;;;;71.85;39.58;;;9.60;99.90;;;;;;5046617;28;20058;-68
2024/01/26 02:46:18;;;;;;;74.65;42.13;;;9.80;99.90;;;;;;5056696;28;20973;-68
2024/01/26 02:48:47;;;;;;;66.03;39.47;;;9.60;99.90;;;;;;5038461;28;20043;-66
2024/01/26 02:51:13;;;;;;;63.08;39.10;;;9.70;99.90;;;;;;5056918;28;20099;-67
2024/01/26 02:53:42;;;;;;;68.50;38.13;;;9.70;99.90;;;;;;5056873;28;20228;-67
2024/01/26 02:56:08;;;;;;;66.47;40.15;;;9.80;99.90;;;;;;5057117;28;20051;-67
2024/01/26 02:58:34;;;;;;;68.03;39.72;;;9.70;99.90;;;;;;5056507;28;20074;-67
2024/01/26 03:01:01;;;;;;;62.45;39.47;;;9.90;99.90;;;;;;5072904;28;20525;-67
2024/01/26 03:03:27;;;;;;;59.15;37.88;;;9.90;99.90;;;;;;5073284;28;20700;-67
2024/01/26 03:05:53;;;;;;;56.97;37.65;;;9.80;99.90;;;;;;5056753;28;20501;-68
2024/01/26 03:08:19;;;;;;;63.03;39.30;;;9.80;99.90;;;;;;5073608;28;20116;-67
2024/01/26 03:10:45;;;;;;;54.90;37.00;;;9.90;99.90;;;;;;5055950;28;20110;-67
2024/01/26 03:13:11;;;;;;;54.53;36.50;;;9.90;99.90;;;;;;5072436;28;20478;-67
2024/01/26 03:15:37;;;;;;;50.05;35.10;;;10.00;99.90;;;;;;5056253;28;20534;-67
2024/01/26 03:18:02;;;;;;;52.47;34.58;;;9.80;99.90;;;;;;5055832;28;20048;-67
2024/01/26 03:20:30;;;;;;;52.88;34.80;;;9.90;99.90;;;;;;5041654;28;20047;-68
2024/01/26 03:22:56;;;;;;;50.70;35.35;;;9.80;99.90;;;;;;5073662;28;20205;-67
2024/01/26 03:25:22;;;;;;;50.53;36.10;;;10.00;99.90;;;;;;5056249;28;20039;-67
2024/01/26 03:27:48;;;;;;;53.08;35.25;;;10.10;99.90;;;;;;5056263;28;20047;-67
2024/01/26 03:30:14;;;;;;;49.85;36.30;;;10.00;99.90;;;;;;5056232;28;20047;-68
2024/01/26 03:32:40;;;;;;;51.15;35.10;;;9.90;99.90;;;;;;5072732;28;20039;-68
2024/01/26 03:35:06;;;;;;;48.00;33.97;;;9.90;99.90;;;;;;5055849;28;20310;-67
2024/01/26 03:37:31;;;;;;;48.42;35.20;;;10.00;99.90;;;;;;5056489;28;20043;-67
2024/01/26 03:39:57;;;;;;;47.15;34.05;;;10.20;99.90;;;;;;5056970;28;20841;-67
2024/01/26 03:42:23;;;;;;;45.88;33.30;;;9.90;99.90;;;;;;5072826;28;20121;-68
2024/01/26 03:44:49;;;;;;;43.95;31.42;;;9.90;99.90;;;;;;5072310;28;20055;-67
2024/01/26 03:47:15;;;;;;;48.60;32.33;;;10.10;99.90;;;;;;5073201;28;20122;-67
2024/01/26 03:49:45;;;;;;;43.85;33.67;;;9.90;99.90;;;;;;5037574;28;20050;-67
2024/01/26 03:52:11;;;;;;;42.40;31.95;;;10.20;99.90;;;;;;5089912;28;20881;-67
2024/01/26 03:54:37;;;;;;;44.00;32.33;;;10.00;99.90;;;;;;5077085;28;20099;-67
2024/01/26 03:57:05;;;;;;;46.40;31.23;;;10.10;99.90;;;;;;5055978;28;20077;-67
2024/01/26 03:59:31;;;;;;;42.50;30.10;;;10.00;99.90;;;;;;5072028;28;20529;-67
2024/01/26 04:01:57;;;;;;;42.42;31.05;;;10.20;99.90;;;;;;5054869;28;20484;-67
2024/01/26 04:04:23;;;;;;;40.03;28.48;;;10.00;99.90;;;;;;5055040;28;20028;-67
2024/01/26 04:06:49;;;;;;;40.03;29.92;;;10.20;99.90;;;;;;5072104;28;20235;-67
2024/01/26 04:09:15;;;;;;;37.67;27.77;;;10.00;99.90;;;;;;5056134;28;20110;-67
2024/01/26 04:11:41;;;;;;;40.10;28.45;;;10.20;99.90;;;;;;5054304;28;20313;-67
2024/01/26 04:14:06;;;;;;;39.95;28.27;;;10.00;99.90;;;;;;5072382;28;20039;-67
2024/01/26 04:16:32;;;;;;;36.72;27.15;;;10.00;99.90;;;;;;5055305;28;20043;-67
2024/01/26 04:18:58;;;;;;;37.55;27.00;;;10.20;99.90;;;;;;5055198;28;20489;-68
2024/01/26 04:21:24;;;;;;;36.53;26.67;;;10.20;99.90;;;;;;5072061;28;20112;-66
2024/01/26 04:23:50;;;;;;;32.88;25.48;;;10.20;99.90;;;;;;5072905;28;20253;-67
2024/01/26 04:26:17;;;;;;;35.20;24.17;;;10.20;99.90;;;;;;5042575;28;20462;-66
2024/01/26 04:28:43;;;;;;;35.88;25.42;;;10.30;99.90;;;;;;5072475;28;20040;-67
2024/01/26 04:31:09;;;;;;;33.78;24.80;;;10.10;99.90;;;;;;5072076;28;20031;-67
2024/01/26 04:33:35;;;;;;;33.00;22.65;;;10.30;99.90;;;;;;5059149;28;20238;-66
2024/01/26 04:36:01;;;;;;;34.08;25.70;;;10.10;99.90;;;;;;5076607;28;20085;-67
2024/01/26 04:38:28;;;;;;;32.05;22.70;;;10.10;99.90;;;;;;5093247;27;20470;-67
2024/01/26 04:40:54;;;;;;;32.63;23.67;;;10.30;99.90;;;;;;5094251;28;20058;-67
2024/01/26 04:43:20;;;;;;;32.53;23.27;;;10.30;99.90;;;;;;5056729;28;20035;-67
2024/01/26 04:45:46;;;;;;;31.23;24.00;;;10.20;99.90;;;;;;5058912;28;20142;-67
2024/01/26 04:48:13;;;;;;;35.92;24.73;;;10.30;99.90;;;;;;5059343;28;20097;-67
2024/01/26 04:50:38;;;;;;;35.17;26.17;;;10.20;99.90;;;;;;5042543;28;20051;-66
2024/01/26 04:53:05;;;;;;;32.85;23.08;;;10.30;99.90;;;;;;5059081;28;20044;-67
2024/01/26 04:55:31;;;;;;;34.08;26.23;;;10.40;99.90;;;;;;5063516;28;20043;-67
2024/01/26 04:57:57;;;;;;;35.88;26.63;;;10.20;99.90;;;;;;5058527;28;20096;-67
2024/01/26 05:00:23;;;;;;;33.75;24.73;;;10.20;99.90;;;;;;5059326;28;20043;-67
2024/01/26 05:02:49;;;;;;;33.92;25.60;;;10.20;99.90;;;;;;5080704;28;20035;-67
2024/01/26 05:05:16;;;;;;;34.22;25.92;;;10.40;99.90;;;;;;5058695;28;20123;-67
2024/01/26 05:07:42;;;;;;;36.53;25.08;;;10.50;99.90;;;;;;5064058;28;20672;-66
2024/01/26 05:10:08;;;;;;;32.17;23.73;;;10.50;99.90;;;;;;5075983;28;20043;-67
2024/01/26 05:12:34;;;;;;;39.97;26.30;;;10.50;99.90;;;;;;5075346;28;20814;-68
2024/01/26 05:15:00;;;;;;;31.85;23.73;;;10.50;99.90;;;;;;5075609;28;20440;-68
2024/01/26 05:17:26;;;;;;;34.53;25.55;;;10.40;99.90;;;;;;5030805;28;20028;-68
2024/01/26 05:19:52;;;;;;;31.88;24.75;;;10.40;99.90;;;;;;5058748;28;20332;-68
2024/01/26 05:22:18;;;;;;;33.55;25.05;;;10.40;99.90;;;;;;5059153;28;20752;-68
2024/01/26 05:24:45;;;;;;;30.85;24.75;;;10.40;99.90;;;;;;5042102;28;20575;-68
2024/01/26 05:27:11;;;;;;;32.47;24.58;;;10.60;99.90;;;;;;5074984;28;20501;-68
2024/01/26 05:29:37;;;;;;;32.97;23.23;;;10.60;99.90;;;;;;5074923;28;20078;-68
2024/01/26 05:32:04;;;;;;;30.77;24.20;;;10.60;99.90;;;;;;5058055;28;20126;-67
2024/01/26 05:34:30;;;;;;;29.75;23.02;;;10.70;99.90;;;;;;5058233;28;20447;-67
2024/01/26 05:36:58;;;;;;;30.20;23.50;;;10.50;99.90;;;;;;5075519;28;20415;-67
2024/01/26 05:39:26;;;;;;;28.83;21.10;;;10.80;99.90;;;;;;5057627;28;20100;-67
2024/01/26 05:41:52;;;;;;;25.17;20.75;;;10.80;99.90;;;;;;5040965;28;20449;-67
2024/01/26 05:44:19;;;;;;;26.60;21.77;;;10.80;99.90;;;;;;5040417;28;20050;-67
2024/01/26 05:46:44;;;;;;;25.20;21.10;;;10.90;99.90;;;;;;5057751;28;20047;-67
2024/01/26 05:49:10;;;;;;;28.83;22.08;;;10.70;99.90;;;;;;5057996;28;20393;-68
2024/01/26 05:51:37;;;;;;;27.25;21.25;;;10.90;99.90;;;;;;5041658;28;20445;-68
2024/01/26 05:54:03;;;;;;;25.98;19.65;;;10.70;99.90;;;;;;5058009;28;20104;-67
2024/01/26 05:56:29;;;;;;;29.02;23.05;;;10.90;99.90;;;;;;5090312;28;20035;-68
2024/01/26 05:58:57;;;;;;;30.77;23.95;;;10.90;99.90;;;;;;5058332;28;20035;-67
2024/01/26 06:01:23;;;;;;;31.55;23.88;;;10.80;99.90;;;;;;5057953;28;20050;-68
2024/01/26 06:03:49;;;;;;;33.40;24.92;;;10.70;99.90;;;;;;5058358;28;20043;-68
2024/01/26 06:06:18;;;;;;;28.00;22.17;;;10.90;99.90;;;;;;5058116;28;20490;-67
2024/01/26 06:08:44;;;;;;;29.35;23.88;;;10.80;99.90;;;;;;5056851;28;20035;-66
2024/01/26 06:11:10;;;;;;;33.85;25.85;;;10.60;99.90;;;;;;5057608;28;20416;-67
2024/01/26 06:13:36;;;;;;;30.73;23.98;;;10.70;99.90;;;;;;5073504;28;20039;-67
2024/01/26 06:16:03;;;;;;;27.70;22.70;;;10.70;99.90;;;;;;5074656;28;20053;-67
2024/01/26 06:18:29;;;;;;;28.83;22.52;;;10.60;99.90;;;;;;5057182;28;20093;-67
2024/01/26 06:20:55;;;;;;;29.02;25.05;;;10.90;99.90;;;;;;5056400;28;20046;-67
2024/01/26 06:23:21;;;;;;;28.77;24.13;;;10.70;99.90;;;;;;5056420;28;20043;-68
2024/01/26 06:25:47;;;;;;;30.15;25.35;;;10.90;99.90;;;;;;5057157;28;20043;-67
2024/01/26 06:28:13;;;;;;;31.00;24.63;;;10.70;99.90;;;;;;5043330;28;20078;-67
2024/01/26 06:30:39;;;;;;;29.13;23.92;;;10.80;99.90;;;;;;5057550;28;20043;-66
2024/01/26 06:33:05;;;;;;;27.95;24.17;;;10.90;99.90;;;;;;5047111;28;20040;-67
2024/01/26 06:35:31;;;;;;;28.88;22.63;;;10.90;99.90;;;;;;5057851;28;20035;-67
2024/01/26 06:37:57;;;;;;;28.55;24.38;;;10.90;99.90;;;;;;5073297;28;20039;-69
2024/01/26 06:40:22;;;;;;;29.27;23.48;;;10.90;99.90;;;;;;5057299;28;20090;-68
2024/01/26 06:42:48;;;;;;;26.60;22.58;;;10.70;99.90;;;;;;5057523;28;20397;-68
2024/01/26 06:45:14;;;;;;;28.08;23.42;;;10.90;99.90;;;;;;5057251;28;20516;-68
2024/01/26 06:47:40;;;;;;;27.35;22.08;;;10.70;99.90;;;;;;5073665;28;20519;-67
2024/01/26 06:50:06;;;;;;;28.50;22.90;;;10.80;99.90;;;;;;5089882;27;20052;-67
2024/01/26 06:52:33;;;;;;;28.27;22.00;;;10.70;99.90;;;;;;5062342;28;20096;-68
2024/01/26 06:54:59;;;;;;;16.98;13.80;;;10.90;99.90;;;;;;5055802;28;20335;-68
2024/01/26 06:57:24;;;;;;;26.00;21.17;;;10.80;99.90;;;;;;5056563;28;20047;-68
2024/01/26 06:59:50;;;;;;;25.27;21.65;;;10.80;99.90;;;;;;5023356;28;20108;-68
2024/01/26 07:02:16;;;;;;;27.95;21.60;;;10.80;99.90;;;;;;5055292;28;20523;-67
2024/01/26 07:04:43;;;;;;;29.02;21.95;;;10.70;99.90;;;;;;5089273;28;20031;-67
2024/01/26 07:07:09;;;;;;;20.90;17.60;;;10.80;99.90;;;;;;5056119;28;20423;-67
2024/01/26 07:09:35;;;;;;;24.95;19.15;;;10.90;99.90;;;;;;5039333;28;20037;-67
2024/01/26 07:12:04;;;;;;;25.05;17.27;;;10.90;99.90;;;;;;5056177;28;20028;-67
2024/01/26 07:14:30;;;;;;;26.00;18.90;;;11.00;99.90;;;;;;5055855;28;20427;-67
2024/01/26 07:16:56;;;;;;;25.15;17.77;;;10.90;99.90;;;;;;5056616;28;20035;-66
2024/01/26 07:19:22;;;;;;;23.60;18.38;;;11.00;99.90;;;;;;5046261;28;20032;-67
2024/01/26 07:21:48;;;;;;;22.92;17.08;;;10.90;99.90;;;;;;5056569;28;20180;-68
2024/01/26 07:24:14;;;;;;;20.75;16.50;;;11.10;99.90;;;;;;5055774;28;20032;-68
2024/01/26 07:26:41;;;;;;;18.70;15.43;;;10.80;99.90;;;;;;5055984;28;20240;-67
2024/01/26 07:29:07;;;;;;;20.85;16.52;;;11.20;99.90;;;;;;5072325;27;20273;-68
2024/01/26 07:31:32;;;;;;;19.08;15.10;;;11.10;99.90;;;;;;5091360;28;20032;-68
2024/01/26 07:33:58;;;;;;;15.82;13.30;;;11.20;99.90;;;;;;5043248;28;20051;-67
2024/01/26 07:36:24;;;;;;;19.70;15.18;;;11.20;99.90;;;;;;5058894;28;20035;-68
2024/01/26 07:38:50;;;;;;;18.63;14.27;;;10.90;99.90;;;;;;5071963;28;20081;-66
2024/01/26 07:41:16;;;;;;;15.00;11.13;;;10.80;99.90;;;;;;5038063;28;20048;-68
2024/01/26 07:43:41;;;;;;;15.65;12.95;;;10.90;99.90;;;;;;5054839;28;20047;-67
2024/01/26 07:46:07;;;;;;;15.45;10.25;;;11.30;99.90;;;;;;5072406;28;20055;-68
2024/01/26 07:48:33;;;;;;;14.80;12.32;;;11.00;99.90;;;;;;5057607;28;20106;-67
2024/01/26 07:50:59;;;;;;;10.43;9.02;;;11.30;99.90;;;;;;5040746;28;20138;-68
2024/01/26 07:53:25;;;;;;;8.88;7.97;;;11.40;99.90;;;;;;5073916;28;20039;-68
2024/01/26 07:55:51;;;;;;;9.98;8.68;;;11.40;99.90;;;;;;5040587;28;20047;-67
2024/01/26 07:58:17;;;;;;;12.10;10.57;;;11.40;99.90;;;;;;5073838;28;20042;-68
2024/01/26 08:00:44;;;;;;;10.95;9.80;;;11.20;99.90;;;;;;5056823;28;20039;-68
2024/01/26 08:03:11;;;;;;;11.15;8.50;;;10.90;99.90;;;;;;5039218;28;20040;-69
2024/01/26 08:05:37;;;;;;;10.13;8.75;;;10.90;99.90;;;;;;5055689;28;20059;-69
2024/01/26 08:08:03;;;;;;;9.77;8.55;;;11.40;99.90;;;;;;5026597;28;20131;-68
2024/01/26 08:10:29;;;;;;;11.10;9.15;;;10.90;99.90;;;;;;5056578;28;20046;-68
2024/01/26 08:12:55;;;;;;;10.73;9.35;;;11.40;99.90;;;;;;5054612;28;20793;-67
2024/01/26 08:15:21;;;;;;;10.32;8.60;;;11.00;99.90;;;;;;5038704;28;20298;-69
2024/01/26 08:17:47;;;;;;;10.45;7.85;;;11.20;99.90;;;;;;5074083;28;20043;-67
2024/01/26 08:20:13;;;;;;;9.77;8.30;;;11.00;99.90;;;;;;5072449;28;20459;-67
2024/01/26 08:22:39;;;;;;;10.48;8.18;;;11.40;99.90;;;;;;5073509;28;20040;-69
2024/01/26 08:25:06;;;;;;;9.90;8.02;;;11.00;99.90;;;;;;5089005;28;20442;-68
2024/01/26 08:27:32;;;;;;;9.93;8.27;;;11.10;99.90;;;;;;5055989;28;20433;-69
2024/01/26 08:29:58;;;;;;;10.52;8.40;;;11.00;99.90;;;;;;5055005;28;20093;-69
2024/01/26 08:32:24;;;;;;;8.07;7.15;;;11.30;99.90;;;;;;5071928;28;20524;-69
2024/01/26 08:34:49;;;;;;;9.43;7.65;;;11.20;99.90;;;;;;5037645;28;20126;-69
2024/01/26 08:37:15;;;;;;;7.88;6.75;;;11.00;99.90;;;;;;5036989;28;20059;-68
2024/01/26 08:39:44;;;;;;;9.73;7.93;;;11.10;99.90;;;;;;5071083;28;20035;-68
2024/01/26 08:42:12;;;;;;;7.78;6.28;;;11.10;99.90;;;;;;5069116;28;20516;-68
2024/01/26 08:44:38;;;;;;;6.30;5.22;;;11.30;99.90;;;;;;5048624;28;20040;-68
2024/01/26 08:47:04;;;;;;;5.78;4.93;;;11.30;99.90;;;;;;5054195;28;20361;-68
2024/01/26 08:49:30;;;;;;;6.00;5.15;;;11.10;99.90;;;;;;5054450;28;20286;-69
2024/01/26 08:51:57;;;;;;;4.53;4.07;;;11.00;99.90;;;;;;5070404;28;20062;-69
2024/01/26 08:54:24;;;;;;;5.90;4.57;;;11.40;99.90;;;;;;5072157;28;20323;-68
2024/01/26 08:56:50;;;;;;;6.32;4.78;;;11.50;99.90;;;;;;5057128;28;20040;-68
2024/01/26 08:59:16;;;;;;;5.30;4.10;;;11.30;99.90;;;;;;5070288;28;20035;-68
2024/01/26 09:01:42;;;;;;;5.28;4.25;;;11.50;99.90;;;;;;5054271;28;20070;-69
2024/01/26 09:04:08;;;;;;;4.28;3.50;;;11.00;99.90;;;;;;5054632;28;20039;-68
2024/01/26 09:06:37;;;;;;;5.22;2.58;;;11.40;99.90;;;;;;5053303;28;20140;-68
2024/01/26 09:09:04;;;;;;;4.90;3.67;;;11.00;99.90;;;;;;5071117;28;20112;-68
2024/01/26 09:11:30;;;;;;;7.53;3.90;;;11.40;99.90;;;;;;5053240;28;20044;-68
2024/01/26 09:13:59;;;;;;;9.32;4.60;;;10.90;99.90;;;;;;5103186;28;20052;-68
2024/01/26 09:16:25;;;;;;;13.52;4.90;;;11.30;99.90;;;;;;5071911;28;20520;-68
2024/01/26 09:18:51;;;;;;;15.15;4.97;;;11.20;99.90;;;;;;5055356;28;20098;-68
2024/01/26 09:21:18;;;;;;;11.15;3.42;;;10.90;99.90;;;;;;5075244;28;20051;-68
2024/01/26 09:23:44;;;;;;;9.70;4.15;;;11.20;99.90;;;;;;5076891;28;20043;-67
2024/01/26 09:26:10;;;;;;;4.93;0.75;;;10.90;99.90;;;;;;5079451;28;20036;-70
2024/01/26 09:28:36;;;;;;;6.25;0.93;;;10.50;99.90;;;;;;5046573;28;20092;-68
2024/01/26 09:31:03;;;;;;;6.05;0.30;;;10.40;99.90;;;;;;5061186;28;20443;-69
2024/01/26 09:33:28;;;;;;;7.85;0.70;;;9.50;99.90;;;;;;5077037;28;20044;-67
2024/01/26 09:35:56;;;;;;;3.90;0.50;;;9.80;99.90;;;;;;5076537;28;20331;-68
2024/01/26 09:38:23;;;;;;;6.38;0.75;;;9.30;99.90;;;;;;5076874;28;20120;-68
2024/01/26 09:40:55;;;;;;;4.57;0.60;;;9.60;99.90;;;;;;5059904;28;21095;-68
2024/01/26 09:43:21;;;;;;;3.78;0.40;;;9.10;99.90;;;;;;5076418;28;20379;-67
2024/01/26 09:45:52;;;;;;;7.45;0.40;;;9.60;99.90;;;;;;5076470;28;20369;-68
2024/01/26 09:48:19;;;;;;;6.45;0.57;;;9.10;99.90;;;;;;5077640;28;20043;-66
2024/01/26 09:50:51;;;;;;;12.48;1.33;;;9.50;99.90;;;;;;5062427;28;20122;-66
2024/01/26 09:53:18;;;;;;;12.10;1.00;;;9.20;99.90;;;;;;5075778;28;20280;-66
2024/01/26 09:55:46;;;;;;;9.93;0.90;;;9.40;99.90;;;;;;5075473;28;20048;-65
2024/01/26 09:58:12;;;;;;;11.38;0.85;;;9.00;99.90;;;;;;5075862;28;20032;-65
2024/01/26 10:00:39;;;;;;;13.77;1.30;;;9.00;99.90;;;;;;5059014;28;20040;-65
2024/01/26 10:03:04;;;;;;;14.23;1.00;;;9.20;99.90;;;;;;5058638;28;20070;-65
2024/01/26 10:05:31;;;;;;;9.52;0.95;;;9.20;99.90;;;;;;5075323;28;20051;-65
2024/01/26 10:07:57;;;;;;;19.23;1.40;;;8.90;99.90;;;;;;5061483;28;20223;-65
2024/01/26 10:10:23;;;;;;;14.02;1.30;;;9.00;99.90;;;;;;5078442;28;20351;-66
2024/01/26 10:12:51;;;;;;;12.15;0.85;;;8.60;99.90;;;;;;5062366;28;20098;-67
2024/01/26 10:15:16;;;;;;;15.85;1.95;;;8.80;99.90;;;;;;5077335;28;20040;-66
2024/01/26 10:17:43;;;;;;;14.80;1.15;;;8.80;99.90;;;;;;5077562;28;20329;-65
2024/01/26 10:20:15;;;;;;;16.92;1.67;;;8.50;99.90;;;;;;5076994;28;20131;-65
2024/01/26 10:22:42;;;;;;;16.67;1.73;;;8.70;99.90;;;;;;5077722;28;20040;-66
2024/01/26 10:25:08;;;;;;;25.38;2.40;;;8.50;99.90;;;;;;5075130;28;20282;-65
2024/01/26 10:27:35;;;;;;;25.00;2.83;;;8.70;99.90;;;;;;5075804;28;20071;-65
2024/01/26 10:30:01;;;;;;;20.95;1.83;;;8.60;99.90;;;;;;5074565;28;20047;-65
2024/01/26 10:32:30;;;;;;;24.23;2.47;;;8.60;99.90;;;;;;5075802;28;20105;-66
2024/01/26 10:35:00;;;;;;;17.80;1.60;;;8.60;99.90;;;;;;5075437;28;20147;-66
2024/01/26 10:37:30;;;;;;;13.75;1.58;;;8.50;99.90;;;;;;5074698;28;20121;-65
2024/01/26 10:39:58;;;;;;;15.43;1.88;;;8.40;99.90;;;;;;5073943;28;20505;-65
2024/01/26 10:42:26;;;;;;;24.35;2.17;;;8.40;99.90;;;;;;5073839;28;20064;-66
2024/01/26 10:44:54;;;;;;;25.48;2.53;;;8.40;99.90;;;;;;5074112;28;20036;-66
2024/01/26 10:47:21;;;;;;;22.27;2.67;;;8.50;99.90;;;;;;5074402;28;20283;-67
2024/01/26 10:49:50;;;;;;;20.20;2.28;;;8.50;99.90;;;;;;5074490;28;20738;-66
2024/01/26 10:52:20;;;;;;;24.08;2.45;;;8.50;99.90;;;;;;5088273;28;20498;-67
2024/01/26 10:54:47;;;;;;;22.25;3.05;;;8.50;99.90;;;;;;5075630;28;20581;-66
2024/01/26 10:57:17;;;;;;;14.50;1.63;;;8.40;99.90;;;;;;5075449;28;20227;-67
2024/01/26 10:59:44;;;;;;;17.48;3.05;;;8.30;99.90;;;;;;5057202;28;20527;-66
2024/01/26 11:02:36;;;;;;;12.77;2.10;;;8.50;99.90;;;;;;5074843;28;20580;-67
2024/01/26 11:05:03;;;;;;;18.75;2.05;;;8.40;99.90;;;;;;5054755;28;20055;-66
2024/01/26 11:07:34;;;;;;;26.27;2.95;;;8.60;99.90;;;;;;5040910;28;20193;-66
2024/01/26 11:10:02;;;;;;;20.75;3.20;;;8.70;99.90;;;;;;5057902;28;20498;-67
2024/01/26 11:12:31;;;;;;;22.50;2.90;;;8.80;99.90;;;;;;5057437;28;20051;-66
2024/01/26 11:15:08;;;;;;;19.83;2.15;;;8.70;99.90;;;;;;5057464;28;20123;-67
2024/01/26 11:18:04;;;;;;;22.73;2.35;;;8.90;99.90;;;;;;5074679;28;20052;-67
2024/01/26 11:20:32;;;;;;;22.30;2.65;;;8.90;99.90;;;;;;5060882;28;20095;-67
2024/01/26 11:23:08;;;;;;;28.02;2.92;;;9.10;99.90;;;;;;5073606;28;20052;-67
2024/01/26 11:25:35;;;;;;;20.27;2.83;;;9.20;99.90;;;;;;5074278;28;20073;-67
2024/01/26 11:28:02;;;;;;;26.20;3.28;;;9.10;99.90;;;;;;5073746;28;20113;-66
2024/01/26 11:30:29;;;;;;;22.05;2.72;;;9.10;99.90;;;;;;5073601;28;20405;-68
2024/01/26 11:32:55;;;;;;;15.27;2.15;;;9.00;99.90;;;;;;5074177;28;20038;-68
2024/01/26 11:35:22;;;;;;;18.00;2.70;;;9.00;99.90;;;;;;5073779;28;20039;-68
2024/01/26 11:37:50;;;;;;;21.45;2.85;;;9.00;99.90;;;;;;5040060;28;20417;-65
2024/01/26 11:40:17;;;;;;;25.55;3.17;;;8.90;99.90;;;;;;5057303;28;20082;-66
2024/01/26 11:42:42;;;;;;;16.35;2.20;;;9.00;99.90;;;;;;5107430;27;20036;-66
2024/01/26 11:45:13;;;;;;;19.05;2.10;;;8.90;99.90;;;;;;5041162;28;20044;-65
2024/01/26 11:47:40;;;;;;;25.52;3.03;;;9.00;99.90;;;;;;5041329;28;20036;-66
2024/01/26 11:50:10;;;;;;;25.00;2.55;;;9.00;99.90;;;;;;5108177;27;20042;-66
2024/01/26 11:52:36;;;;;;;23.27;2.90;;;9.10;99.90;;;;;;5057181;28;20087;-65
2024/01/26 11:55:03;;;;;;;18.02;2.55;;;9.10;99.90;;;;;;5057437;28;20461;-67
2024/01/26 11:57:32;;;;;;;22.65;2.70;;;9.00;99.90;;;;;;5057098;28;20072;-65
2024/01/26 11:59:59;;;;;;;21.05;2.83;;;8.90;99.90;;;;;;5057403;28;20101;-65
2024/01/26 12:02:25;;;;;;;20.20;2.40;;;8.90;99.90;;;;;;5057707;28;20125;-67
2024/01/26 12:04:51;;;;;;;23.27;3.63;;;9.00;99.90;;;;;;5057975;28;20120;-65
2024/01/26 12:07:17;;;;;;;24.83;2.78;;;9.00;99.90;;;;;;5040678;28;20036;-66
2024/01/26 12:09:44;;;;;;;21.20;2.50;;;8.90;99.90;;;;;;5058068;28;20047;-67
2024/01/26 12:12:10;;;;;;;20.48;2.65;;;8.90;99.90;;;;;;5058633;28;20119;-66
2024/01/26 12:14:37;;;;;;;25.63;3.13;;;8.90;99.90;;;;;;5057031;28;20058;-66
2024/01/26 12:17:03;;;;;;;22.20;2.88;;;8.90;99.90;;;;;;5073451;28;20485;-66
2024/01/26 12:19:29;;;;;;;22.13;2.40;;;8.80;99.90;;;;;;5057245;28;20136;-67
2024/01/26 12:21:56;;;;;;;27.70;3.85;;;8.60;99.90;;;;;;5056575;28;20437;-66
2024/01/26 12:24:23;;;;;;;24.25;3.42;;;8.50;99.90;;;;;;5058539;28;20047;-66
2024/01/26 12:26:50;;;;;;;28.80;3.88;;;8.40;99.90;;;;;;5074378;28;20046;-66
2024/01/26 12:29:16;;;;;;;30.98;3.67;;;8.40;99.90;;;;;;5073638;28;20758;-66
2024/01/26 12:31:41;;;;;;;22.92;3.00;;;8.10;99.90;;;;;;5073647;28;20051;-67
2024/01/26 12:34:14;;;;;;;30.40;4.75;;;8.00;99.90;;;;;;5073856;28;20125;-66